Hoffman, Illinois
Current Conditions -  °F | °C
As of 9:35 PM on Monday 22 Dec 2014 (Local Time) from KENL Reporting Station
Light Rain Light Rain  
Wind Chill: 50°   Ceiling: 500
Heat Index: 50°   Visibility: 5mi
Dew Point: 47°   Wind: 13mph
Humidity: 91%   Direction: 160°SSE
Pressure: 29.57"   Gusts: 17mph
Location:  38.54°N, 89.26°W
Report Text: KENL 230335Z AUTO 16011G15KT 5SM -RA OVC005 10/09 A2957 RMK AO2 P0001 T01000086
Loading
Personal Weather Stations






























Interactive Weather Map New forecast layout! Learn more

10-Day Weather Forecast

Advertisements
Track Severe Weather on mobile